sensor_id;sensor_type;location;lat;lon;timestamp;temperature;humidity
22139;DHT22;25815;52.582;13.408;2024-03-07T00:02:18;6.20;99.90
22139;DHT22;25815;52.582;13.408;2024-03-07T00:04:44;6.20;99.90
22139;DHT22;25815;52.582;13.408;2024-03-07T00:07:09;6.20;99.90
22139;DHT22;25815;52.582;13.408;2024-03-07T00:09:35;6.20;99.90
22139;DHT22;25815;52.582;13.408;2024-03-07T00:12:02;6.20;99.90
22139;DHT22;25815;52.582;13.408;2024-03-07T00:14:27;6.20;99.90
22139;DHT22;25815;52.582;13.408;2024-03-07T00:16:56;6.20;99.90
22139;DHT22;25815;52.582;13.408;2024-03-07T00:19:23;6.10;99.90
22139;DHT22;25815;52.582;13.408;2024-03-07T00:21:59;6.10;99.90
22139;DHT22;25815;52.582;13.408;2024-03-07T00:24:24;6.10;99.90
22139;DHT22;25815;52.582;13.408;2024-03-07T00:26:50;6.10;99.90
22139;DHT22;25815;52.582;13.408;2024-03-07T00:29:17;6.10;99.90
22139;DHT22;25815;52.582;13.408;2024-03-07T00:31:44;6.20;99.90
22139;DHT22;25815;52.582;13.408;2024-03-07T00:34:10;6.20;99.90
22139;DHT22;25815;52.582;13.408;2024-03-07T00:36:36;6.20;99.90
22139;DHT22;25815;52.582;13.408;2024-03-07T00:39:01;6.10;99.90
22139;DHT22;25815;52.582;13.408;2024-03-07T00:41:27;6.10;99.90
22139;DHT22;25815;52.582;13.408;2024-03-07T00:43:53;6.20;99.90
22139;DHT22;25815;52.582;13.408;2024-03-07T00:46:18;6.20;99.90
22139;DHT22;25815;52.582;13.408;2024-03-07T00:48:44;6.20;99.90
22139;DHT22;25815;52.582;13.408;2024-03-07T00:51:10;6.20;99.90
22139;DHT22;25815;52.582;13.408;2024-03-07T00:53:36;6.10;99.90
22139;DHT22;25815;52.582;13.408;2024-03-07T00:56:02;6.10;99.90
22139;DHT22;25815;52.582;13.408;2024-03-07T00:58:28;6.10;99.90
22139;DHT22;25815;52.582;13.408;2024-03-07T01:00:53;6.10;99.90
22139;DHT22;25815;52.582;13.408;2024-03-07T01:03:19;6.10;99.90
22139;DHT22;25815;52.582;13.408;2024-03-07T01:05:45;6.10;99.90
22139;DHT22;25815;52.582;13.408;2024-03-07T01:08:12;6.10;99.90
22139;DHT22;25815;52.582;13.408;2024-03-07T01:10:37;6.10;99.90
22139;DHT22;25815;52.582;13.408;2024-03-07T01:13:03;6.00;99.90
22139;DHT22;25815;52.582;13.408;2024-03-07T01:15:32;6.00;99.90
22139;DHT22;25815;52.582;13.408;2024-03-07T01:17:58;6.00;99.90
22139;DHT22;25815;52.582;13.408;2024-03-07T01:20:23;6.00;99.90
22139;DHT22;25815;52.582;13.408;2024-03-07T01:22:53;6.00;99.90
22139;DHT22;25815;52.582;13.408;2024-03-07T01:25:19;6.00;99.90
22139;DHT22;25815;52.582;13.408;2024-03-07T01:27:46;6.00;99.90
22139;DHT22;25815;52.582;13.408;2024-03-07T01:30:12;6.00;99.90
22139;DHT22;25815;52.582;13.408;2024-03-07T01:32:38;6.00;99.90
22139;DHT22;25815;52.582;13.408;2024-03-07T01:35:04;6.00;99.90
22139;DHT22;25815;52.582;13.408;2024-03-07T01:37:32;6.00;99.90
22139;DHT22;25815;52.582;13.408;2024-03-07T01:39:58;6.00;99.90
22139;DHT22;25815;52.582;13.408;2024-03-07T01:42:23;5.90;99.90
22139;DHT22;25815;52.582;13.408;2024-03-07T01:44:50;5.90;99.90
22139;DHT22;25815;52.582;13.408;2024-03-07T01:47:17;5.90;99.90
22139;DHT22;25815;52.582;13.408;2024-03-07T01:49:43;5.90;99.90
22139;DHT22;25815;52.582;13.408;2024-03-07T01:52:09;5.90;99.90
22139;DHT22;25815;52.582;13.408;2024-03-07T01:54:36;5.90;99.90
22139;DHT22;25815;52.582;13.408;2024-03-07T01:57:02;5.90;99.90
22139;DHT22;25815;52.582;13.408;2024-03-07T01:59:29;5.90;99.90
22139;DHT22;25815;52.582;13.408;2024-03-07T02:01:56;5.80;99.90
22139;DHT22;25815;52.582;13.408;2024-03-07T02:04:22;5.70;99.90
22139;DHT22;25815;52.582;13.408;2024-03-07T02:06:49;5.70;99.90
22139;DHT22;25815;52.582;13.408;2024-03-07T02:09:15;5.70;99.90
22139;DHT22;25815;52.582;13.408;2024-03-07T02:11:41;5.50;99.90
22139;DHT22;25815;52.582;13.408;2024-03-07T02:14:06;5.40;99.90
22139;DHT22;25815;52.582;13.408;2024-03-07T02:16:32;5.40;99.90
22139;DHT22;25815;52.582;13.408;2024-03-07T02:18:57;5.30;99.90
22139;DHT22;25815;52.582;13.408;2024-03-07T02:21:25;5.20;99.90
22139;DHT22;25815;52.582;13.408;2024-03-07T02:23:50;5.20;99.90
22139;DHT22;25815;52.582;13.408;2024-03-07T02:26:16;5.10;99.90
22139;DHT22;25815;52.582;13.408;2024-03-07T02:28:42;5.10;99.90
22139;DHT22;25815;52.582;13.408;2024-03-07T02:31:08;5.10;99.90
22139;DHT22;25815;52.582;13.408;2024-03-07T02:33:33;5.10;99.90
22139;DHT22;25815;52.582;13.408;2024-03-07T02:35:59;5.00;99.90
22139;DHT22;25815;52.582;13.408;2024-03-07T02:38:24;5.00;99.90
22139;DHT22;25815;52.582;13.408;2024-03-07T02:40:50;5.00;99.90
22139;DHT22;25815;52.582;13.408;2024-03-07T02:43:15;5.00;99.90
22139;DHT22;25815;52.582;13.408;2024-03-07T02:45:41;5.00;99.90
22139;DHT22;25815;52.582;13.408;2024-03-07T02:48:07;5.00;99.90
22139;DHT22;25815;52.582;13.408;2024-03-07T02:50:35;4.90;99.90
22139;DHT22;25815;52.582;13.408;2024-03-07T02:53:03;4.90;99.90
22139;DHT22;25815;52.582;13.408;2024-03-07T02:55:29;4.80;99.90
22139;DHT22;25815;52.582;13.408;2024-03-07T02:57:54;4.70;99.90
22139;DHT22;25815;52.582;13.408;2024-03-07T03:00:23;4.70;99.90
22139;DHT22;25815;52.582;13.408;2024-03-07T03:02:52;4.60;99.90
22139;DHT22;25815;52.582;13.408;2024-03-07T03:05:18;4.50;99.90
22139;DHT22;25815;52.582;13.408;2024-03-07T03:07:44;4.60;99.90
22139;DHT22;25815;52.582;13.408;2024-03-07T03:10:29;4.50;99.90
22139;DHT22;25815;52.582;13.408;2024-03-07T03:12:56;4.50;99.90
22139;DHT22;25815;52.582;13.408;2024-03-07T03:15:24;4.40;99.90
22139;DHT22;25815;52.582;13.408;2024-03-07T03:17:50;4.30;99.90
22139;DHT22;25815;52.582;13.408;2024-03-07T03:20:15;4.30;99.90
22139;DHT22;25815;52.582;13.408;2024-03-07T03:22:53;4.20;99.90
22139;DHT22;25815;52.582;13.408;2024-03-07T03:25:20;4.10;99.90
22139;DHT22;25815;52.582;13.408;2024-03-07T03:27:49;4.00;99.90
22139;DHT22;25815;52.582;13.408;2024-03-07T03:30:15;4.00;99.90
22139;DHT22;25815;52.582;13.408;2024-03-07T03:32:44;4.00;99.90
22139;DHT22;25815;52.582;13.408;2024-03-07T03:35:10;4.00;99.90
22139;DHT22;25815;52.582;13.408;2024-03-07T03:37:39;4.00;99.90
22139;DHT22;25815;52.582;13.408;2024-03-07T03:40:06;4.00;99.90
22139;DHT22;25815;52.582;13.408;2024-03-07T03:42:34;4.00;99.90
22139;DHT22;25815;52.582;13.408;2024-03-07T03:45:01;4.00;99.90
22139;DHT22;25815;52.582;13.408;2024-03-07T03:47:28;4.00;99.90
22139;DHT22;25815;52.582;13.408;2024-03-07T03:49:53;4.10;99.90
22139;DHT22;25815;52.582;13.408;2024-03-07T03:52:19;4.10;99.90
22139;DHT22;25815;52.582;13.408;2024-03-07T03:54:44;4.10;99.90
22139;DHT22;25815;52.582;13.408;2024-03-07T03:57:10;4.10;99.90
22139;DHT22;25815;52.582;13.408;2024-03-07T03:59:35;4.00;99.90
22139;DHT22;25815;52.582;13.408;2024-03-07T04:02:01;4.00;99.90
22139;DHT22;25815;52.582;13.408;2024-03-07T04:04:26;3.90;99.90
22139;DHT22;25815;52.582;13.408;2024-03-07T04:06:52;3.90;99.90
22139;DHT22;25815;52.582;13.408;2024-03-07T04:09:18;3.90;99.90
22139;DHT22;25815;52.582;13.408;2024-03-07T04:11:45;3.80;99.90
22139;DHT22;25815;52.582;13.408;2024-03-07T04:14:11;3.80;99.90
22139;DHT22;25815;52.582;13.408;2024-03-07T04:16:36;3.80;99.90
22139;DHT22;25815;52.582;13.408;2024-03-07T04:19:02;3.80;99.90
22139;DHT22;25815;52.582;13.408;2024-03-07T04:21:27;3.80;99.90
22139;DHT22;25815;52.582;13.408;2024-03-07T04:23:53;3.80;99.90
22139;DHT22;25815;52.582;13.408;2024-03-07T04:26:18;3.70;99.90
22139;DHT22;25815;52.582;13.408;2024-03-07T04:28:44;3.80;99.90
22139;DHT22;25815;52.582;13.408;2024-03-07T04:31:10;3.70;99.90
22139;DHT22;25815;52.582;13.408;2024-03-07T04:33:36;3.70;99.90
22139;DHT22;25815;52.582;13.408;2024-03-07T04:36:01;3.70;99.90
22139;DHT22;25815;52.582;13.408;2024-03-07T04:38:27;3.70;99.90
22139;DHT22;25815;52.582;13.408;2024-03-07T04:40:53;3.60;99.90
22139;DHT22;25815;52.582;13.408;2024-03-07T04:43:19;3.60;99.90
22139;DHT22;25815;52.582;13.408;2024-03-07T04:45:45;3.70;99.90
22139;DHT22;25815;52.582;13.408;2024-03-07T04:48:10;3.70;99.90
22139;DHT22;25815;52.582;13.408;2024-03-07T04:50:36;3.70;99.90
22139;DHT22;25815;52.582;13.408;2024-03-07T04:53:02;3.70;99.90
22139;DHT22;25815;52.582;13.408;2024-03-07T04:55:27;3.70;99.90
22139;DHT22;25815;52.582;13.408;2024-03-07T04:57:53;3.60;99.90
22139;DHT22;25815;52.582;13.408;2024-03-07T05:00:18;3.60;99.90
22139;DHT22;25815;52.582;13.408;2024-03-07T05:02:48;3.60;99.90
22139;DHT22;25815;52.582;13.408;2024-03-07T05:05:15;3.50;99.90
22139;DHT22;25815;52.582;13.408;2024-03-07T05:07:48;3.50;99.90
22139;DHT22;25815;52.582;13.408;2024-03-07T05:10:15;3.40;99.90
22139;DHT22;25815;52.582;13.408;2024-03-07T05:12:40;3.40;99.90
22139;DHT22;25815;52.582;13.408;2024-03-07T05:15:06;3.40;99.90
22139;DHT22;25815;52.582;13.408;2024-03-07T05:17:35;3.40;99.90
22139;DHT22;25815;52.582;13.408;2024-03-07T05:20:03;3.30;99.90
22139;DHT22;25815;52.582;13.408;2024-03-07T05:22:35;3.20;99.90
22139;DHT22;25815;52.582;13.408;2024-03-07T05:25:04;3.20;99.90
22139;DHT22;25815;52.582;13.408;2024-03-07T05:27:31;3.20;99.90
22139;DHT22;25815;52.582;13.408;2024-03-07T05:29:56;3.20;99.90
22139;DHT22;25815;52.582;13.408;2024-03-07T05:32:24;3.10;99.90
22139;DHT22;25815;52.582;13.408;2024-03-07T05:34:51;3.10;99.90
22139;DHT22;25815;52.582;13.408;2024-03-07T05:37:17;3.10;99.90
22139;DHT22;25815;52.582;13.408;2024-03-07T05:39:42;3.00;99.90
22139;DHT22;25815;52.582;13.408;2024-03-07T05:42:08;3.00;99.90
22139;DHT22;25815;52.582;13.408;2024-03-07T05:44:34;3.00;99.90
22139;DHT22;25815;52.582;13.408;2024-03-07T05:46:59;2.90;99.90
22139;DHT22;25815;52.582;13.408;2024-03-07T05:49:25;2.90;99.90
22139;DHT22;25815;52.582;13.408;2024-03-07T05:51:50;2.90;99.90
22139;DHT22;25815;52.582;13.408;2024-03-07T05:54:16;2.80;99.90
22139;DHT22;25815;52.582;13.408;2024-03-07T05:56:41;2.80;99.90
22139;DHT22;25815;52.582;13.408;2024-03-07T05:59:08;2.80;99.90
22139;DHT22;25815;52.582;13.408;2024-03-07T06:01:37;2.80;99.90
22139;DHT22;25815;52.582;13.408;2024-03-07T06:04:04;2.80;99.90
22139;DHT22;25815;52.582;13.408;2024-03-07T06:06:31;2.80;99.90
22139;DHT22;25815;52.582;13.408;2024-03-07T06:09:02;2.80;99.90
22139;DHT22;25815;52.582;13.408;2024-03-07T06:11:33;2.80;99.90
22139;DHT22;25815;52.582;13.408;2024-03-07T06:13:59;2.80;99.90
22139;DHT22;25815;52.582;13.408;2024-03-07T06:16:24;2.80;99.90
22139;DHT22;25815;52.582;13.408;2024-03-07T06:18:50;2.80;99.90
22139;DHT22;25815;52.582;13.408;2024-03-07T06:21:17;2.80;99.90
22139;DHT22;25815;52.582;13.408;2024-03-07T06:23:44;2.90;99.90
22139;DHT22;25815;52.582;13.408;2024-03-07T06:26:13;2.90;99.90
22139;DHT22;25815;52.582;13.408;2024-03-07T06:28:42;2.90;99.90
22139;DHT22;25815;52.582;13.408;2024-03-07T06:31:07;3.00;99.90
22139;DHT22;25815;52.582;13.408;2024-03-07T06:33:33;3.00;99.90
22139;DHT22;25815;52.582;13.408;2024-03-07T06:35:59;3.00;99.90
22139;DHT22;25815;52.582;13.408;2024-03-07T06:38:26;3.00;99.90
22139;DHT22;25815;52.582;13.408;2024-03-07T06:40:52;3.10;99.90
22139;DHT22;25815;52.582;13.408;2024-03-07T06:43:18;3.10;99.90
22139;DHT22;25815;52.582;13.408;2024-03-07T06:45:44;3.10;99.90
22139;DHT22;25815;52.582;13.408;2024-03-07T06:48:11;3.20;99.90
22139;DHT22;25815;52.582;13.408;2024-03-07T06:50:39;3.20;99.90
22139;DHT22;25815;52.582;13.408;2024-03-07T06:53:05;3.20;99.90
22139;DHT22;25815;52.582;13.408;2024-03-07T06:55:32;3.30;99.90
22139;DHT22;25815;52.582;13.408;2024-03-07T06:58:00;3.30;99.90
22139;DHT22;25815;52.582;13.408;2024-03-07T07:00:26;3.40;99.90
22139;DHT22;25815;52.582;13.408;2024-03-07T07:02:52;3.40;99.90
22139;DHT22;25815;52.582;13.408;2024-03-07T07:05:20;3.40;99.90
22139;DHT22;25815;52.582;13.408;2024-03-07T07:07:49;3.50;99.90
22139;DHT22;25815;52.582;13.408;2024-03-07T07:10:15;3.60;99.90
22139;DHT22;25815;52.582;13.408;2024-03-07T07:12:47;3.60;99.90
22139;DHT22;25815;52.582;13.408;2024-03-07T07:15:13;3.70;99.90
22139;DHT22;25815;52.582;13.408;2024-03-07T07:17:41;3.70;99.90
22139;DHT22;25815;52.582;13.408;2024-03-07T07:20:07;3.70;99.90
22139;DHT22;25815;52.582;13.408;2024-03-07T07:22:39;3.70;99.90
22139;DHT22;25815;52.582;13.408;2024-03-07T07:25:05;3.80;99.90
22139;DHT22;25815;52.582;13.408;2024-03-07T07:27:34;3.80;99.90
22139;DHT22;25815;52.582;13.408;2024-03-07T07:30:00;3.90;99.90
22139;DHT22;25815;52.582;13.408;2024-03-07T07:32:25;3.90;99.90
22139;DHT22;25815;52.582;13.408;2024-03-07T07:34:53;3.90;99.90
22139;DHT22;25815;52.582;13.408;2024-03-07T07:37:18;4.00;99.90
22139;DHT22;25815;52.582;13.408;2024-03-07T07:39:44;4.00;99.90
22139;DHT22;25815;52.582;13.408;2024-03-07T07:42:09;4.00;99.90
22139;DHT22;25815;52.582;13.408;2024-03-07T07:44:36;4.10;99.90
22139;DHT22;25815;52.582;13.408;2024-03-07T07:47:02;4.10;99.90
22139;DHT22;25815;52.582;13.408;2024-03-07T07:49:27;4.20;99.90
22139;DHT22;25815;52.582;13.408;2024-03-07T07:51:53;4.20;99.90
22139;DHT22;25815;52.582;13.408;2024-03-07T07:54:19;4.20;99.90
22139;DHT22;25815;52.582;13.408;2024-03-07T07:56:46;4.30;99.90
22139;DHT22;25815;52.582;13.408;2024-03-07T07:59:13;4.30;99.90
22139;DHT22;25815;52.582;13.408;2024-03-07T08:01:39;4.30;99.90
22139;DHT22;25815;52.582;13.408;2024-03-07T08:04:05;4.30;99.90
22139;DHT22;25815;52.582;13.408;2024-03-07T08:06:31;4.30;99.90
22139;DHT22;25815;52.582;13.408;2024-03-07T08:08:56;4.30;99.90
22139;DHT22;25815;52.582;13.408;2024-03-07T08:11:22;4.40;99.90
22139;DHT22;25815;52.582;13.408;2024-03-07T08:13:47;4.50;99.90
22139;DHT22;25815;52.582;13.408;2024-03-07T08:16:16;4.50;99.90
22139;DHT22;25815;52.582;13.408;2024-03-07T08:18:42;4.50;99.90
22139;DHT22;25815;52.582;13.408;2024-03-07T08:21:07;4.60;99.90
22139;DHT22;25815;52.582;13.408;2024-03-07T08:23:36;4.60;99.90
22139;DHT22;25815;52.582;13.408;2024-03-07T08:26:02;4.70;99.90
22139;DHT22;25815;52.582;13.408;2024-03-07T08:28:28;4.70;99.90
22139;DHT22;25815;52.582;13.408;2024-03-07T08:30:53;4.80;99.90
22139;DHT22;25815;52.582;13.408;2024-03-07T08:33:20;4.80;99.90
22139;DHT22;25815;52.582;13.408;2024-03-07T08:35:47;4.90;99.90
22139;DHT22;25815;52.582;13.408;2024-03-07T08:38:13;4.90;99.90
22139;DHT22;25815;52.582;13.408;2024-03-07T08:40:39;5.00;99.90
22139;DHT22;25815;52.582;13.408;2024-03-07T08:43:05;5.00;99.90
22139;DHT22;25815;52.582;13.408;2024-03-07T08:45:32;5.10;99.90
22139;DHT22;25815;52.582;13.408;2024-03-07T08:47:58;5.10;99.90
22139;DHT22;25815;52.582;13.408;2024-03-07T08:50:24;5.20;99.90
22139;DHT22;25815;52.582;13.408;2024-03-07T08:52:51;5.30;99.90
22139;DHT22;25815;52.582;13.408;2024-03-07T08:55:20;5.30;99.90
22139;DHT22;25815;52.582;13.408;2024-03-07T08:57:46;5.30;99.90
22139;DHT22;25815;52.582;13.408;2024-03-07T09:00:13;5.30;99.90
22139;DHT22;25815;52.582;13.408;2024-03-07T09:02:52;5.40;99.90
22139;DHT22;25815;52.582;13.408;2024-03-07T09:05:19;5.40;99.90
22139;DHT22;25815;52.582;13.408;2024-03-07T09:07:46;5.50;99.90
22139;DHT22;25815;52.582;13.408;2024-03-07T09:10:12;5.50;99.90
22139;DHT22;25815;52.582;13.408;2024-03-07T09:12:40;5.50;99.90
22139;DHT22;25815;52.582;13.408;2024-03-07T09:15:06;5.60;99.90
22139;DHT22;25815;52.582;13.408;2024-03-07T09:17:32;5.60;99.90
22139;DHT22;25815;52.582;13.408;2024-03-07T09:19:57;5.70;99.90
22139;DHT22;25815;52.582;13.408;2024-03-07T09:22:23;5.70;99.90
22139;DHT22;25815;52.582;13.408;2024-03-07T09:24:48;5.80;99.90
22139;DHT22;25815;52.582;13.408;2024-03-07T09:27:14;5.80;99.90
22139;DHT22;25815;52.582;13.408;2024-03-07T09:29:45;5.90;99.90
22139;DHT22;25815;52.582;13.408;2024-03-07T09:32:13;5.90;99.90
22139;DHT22;25815;52.582;13.408;2024-03-07T09:34:39;6.00;99.90
22139;DHT22;25815;52.582;13.408;2024-03-07T09:37:04;6.10;99.90
22139;DHT22;25815;52.582;13.408;2024-03-07T09:39:32;6.10;99.90
22139;DHT22;25815;52.582;13.408;2024-03-07T09:42:00;6.10;99.90
22139;DHT22;25815;52.582;13.408;2024-03-07T09:44:28;6.20;99.90
22139;DHT22;25815;52.582;13.408;2024-03-07T09:46:55;6.20;99.90
22139;DHT22;25815;52.582;13.408;2024-03-07T09:49:22;6.20;99.90
22139;DHT22;25815;52.582;13.408;2024-03-07T09:51:50;6.30;99.90
22139;DHT22;25815;52.582;13.408;2024-03-07T09:54:20;6.30;99.90
22139;DHT22;25815;52.582;13.408;2024-03-07T09:56:47;6.40;99.90
22139;DHT22;25815;52.582;13.408;2024-03-07T09:59:14;6.40;99.90
22139;DHT22;25815;52.582;13.408;2024-03-07T10:01:47;6.50;99.90
22139;DHT22;25815;52.582;13.408;2024-03-07T10:04:13;6.50;99.90
22139;DHT22;25815;52.582;13.408;2024-03-07T10:06:42;6.60;99.90
22139;DHT22;25815;52.582;13.408;2024-03-07T10:09:10;6.70;99.90
22139;DHT22;25815;52.582;13.408;2024-03-07T10:11:40;6.70;99.90
22139;DHT22;25815;52.582;13.408;2024-03-07T10:14:07;6.80;99.90
22139;DHT22;25815;52.582;13.408;2024-03-07T10:16:32;6.80;99.90
22139;DHT22;25815;52.582;13.408;2024-03-07T10:18:58;6.80;99.90
22139;DHT22;25815;52.582;13.408;2024-03-07T10:21:23;6.90;99.90
22139;DHT22;25815;52.582;13.408;2024-03-07T10:23:50;7.10;99.90
22139;DHT22;25815;52.582;13.408;2024-03-07T10:26:18;7.20;99.90
22139;DHT22;25815;52.582;13.408;2024-03-07T10:28:44;7.50;99.90
22139;DHT22;25815;52.582;13.408;2024-03-07T10:31:09;7.90;99.90
22139;DHT22;25815;52.582;13.408;2024-03-07T10:33:40;8.10;99.90
22139;DHT22;25815;52.582;13.408;2024-03-07T10:36:06;8.40;99.90
22139;DHT22;25815;52.582;13.408;2024-03-07T10:38:38;8.70;99.90
22139;DHT22;25815;52.582;13.408;2024-03-07T10:41:05;8.90;99.90
22139;DHT22;25815;52.582;13.408;2024-03-07T10:43:37;9.00;99.90
22139;DHT22;25815;52.582;13.408;2024-03-07T10:46:05;9.10;99.90
22139;DHT22;25815;52.582;13.408;2024-03-07T10:48:38;9.20;99.90
22139;DHT22;25815;52.582;13.408;2024-03-07T10:51:20;9.30;99.90
22139;DHT22;25815;52.582;13.408;2024-03-07T10:53:55;9.60;99.90
22139;DHT22;25815;52.582;13.408;2024-03-07T10:56:33;9.70;99.90
22139;DHT22;25815;52.582;13.408;2024-03-07T10:59:08;9.80;99.90
22139;DHT22;25815;52.582;13.408;2024-03-07T11:01:47;10.00;99.90
22139;DHT22;25815;52.582;13.408;2024-03-07T11:04:16;10.30;99.90
22139;DHT22;25815;52.582;13.408;2024-03-07T11:06:42;10.30;99.90
22139;DHT22;25815;52.582;13.408;2024-03-07T11:09:10;10.20;99.90
22139;DHT22;25815;52.582;13.408;2024-03-07T11:11:39;10.20;99.90
22139;DHT22;25815;52.582;13.408;2024-03-07T11:14:10;10.30;99.90
22139;DHT22;25815;52.582;13.408;2024-03-07T11:16:38;10.20;99.90
22139;DHT22;25815;52.582;13.408;2024-03-07T11:19:31;10.00;99.90
22139;DHT22;25815;52.582;13.408;2024-03-07T11:21:57;9.80;99.90
22139;DHT22;25815;52.582;13.408;2024-03-07T11:24:26;9.70;99.90
22139;DHT22;25815;52.582;13.408;2024-03-07T11:26:54;9.60;99.90
22139;DHT22;25815;52.582;13.408;2024-03-07T11:29:49;9.60;99.90
22139;DHT22;25815;52.582;13.408;2024-03-07T11:32:23;9.70;99.90
22139;DHT22;25815;52.582;13.408;2024-03-07T11:34:49;9.70;99.90
22139;DHT22;25815;52.582;13.408;2024-03-07T11:37:19;9.70;99.90
22139;DHT22;25815;52.582;13.408;2024-03-07T11:39:49;9.60;99.90
22139;DHT22;25815;52.582;13.408;2024-03-07T11:42:26;9.90;99.90
22139;DHT22;25815;52.582;13.408;2024-03-07T11:44:53;9.90;99.90
22139;DHT22;25815;52.582;13.408;2024-03-07T11:47:22;9.90;99.90
22139;DHT22;25815;52.582;13.408;2024-03-07T11:49:52;9.90;99.90
22139;DHT22;25815;52.582;13.408;2024-03-07T11:52:18;9.90;99.90
22139;DHT22;25815;52.582;13.408;2024-03-07T11:54:44;10.10;99.90
22139;DHT22;25815;52.582;13.408;2024-03-07T11:57:16;10.20;99.90
22139;DHT22;25815;52.582;13.408;2024-03-07T11:59:44;10.30;99.90
22139;DHT22;25815;52.582;13.408;2024-03-07T12:02:13;10.30;99.90
22139;DHT22;25815;52.582;13.408;2024-03-07T12:04:43;10.30;99.90
22139;DHT22;25815;52.582;13.408;2024-03-07T12:07:08;10.60;99.90
22139;DHT22;25815;52.582;13.408;2024-03-07T12:09:37;10.60;99.90
22139;DHT22;25815;52.582;13.408;2024-03-07T12:12:04;10.50;99.90
22139;DHT22;25815;52.582;13.408;2024-03-07T12:14:30;10.60;99.90
22139;DHT22;25815;52.582;13.408;2024-03-07T12:16:56;10.80;99.90
22139;DHT22;25815;52.582;13.408;2024-03-07T12:19:23;10.80;99.90
22139;DHT22;25815;52.582;13.408;2024-03-07T12:21:49;11.00;99.90
22139;DHT22;25815;52.582;13.408;2024-03-07T12:24:15;11.00;99.90
22139;DHT22;25815;52.582;13.408;2024-03-07T12:26:41;11.10;99.90
22139;DHT22;25815;52.582;13.408;2024-03-07T12:29:11;11.30;99.90
22139;DHT22;25815;52.582;13.408;2024-03-07T12:31:38;11.30;99.90
22139;DHT22;25815;52.582;13.408;2024-03-07T12:34:04;11.30;99.90
22139;DHT22;25815;52.582;13.408;2024-03-07T12:36:30;11.30;99.90
22139;DHT22;25815;52.582;13.408;2024-03-07T12:39:02;11.40;99.90
22139;DHT22;25815;52.582;13.408;2024-03-07T12:41:34;11.40;99.90
22139;DHT22;25815;52.582;13.408;2024-03-07T12:44:00;11.50;99.90
22139;DHT22;25815;52.582;13.408;2024-03-07T12:46:26;11.60;99.90
22139;DHT22;25815;52.582;13.408;2024-03-07T12:48:54;11.60;99.90
22139;DHT22;25815;52.582;13.408;2024-03-07T12:51:23;11.80;99.90
22139;DHT22;25815;52.582;13.408;2024-03-07T12:53:50;11.90;99.90
22139;DHT22;25815;52.582;13.408;2024-03-07T12:56:16;12.00;99.90
22139;DHT22;25815;52.582;13.408;2024-03-07T12:58:44;12.10;99.90
22139;DHT22;25815;52.582;13.408;2024-03-07T13:01:10;12.10;99.90
22139;DHT22;25815;52.582;13.408;2024-03-07T13:03:36;12.20;99.90
22139;DHT22;25815;52.582;13.408;2024-03-07T13:06:02;12.20;99.90
22139;DHT22;25815;52.582;13.408;2024-03-07T13:08:28;12.30;99.90
22139;DHT22;25815;52.582;13.408;2024-03-07T13:10:56;12.20;99.90
22139;DHT22;25815;52.582;13.408;2024-03-07T13:13:24;12.20;99.90
22139;DHT22;25815;52.582;13.408;2024-03-07T13:15:50;12.30;99.90
22139;DHT22;25815;52.582;13.408;2024-03-07T13:18:18;12.40;99.90
22139;DHT22;25815;52.582;13.408;2024-03-07T13:20:44;12.60;99.90
22139;DHT22;25815;52.582;13.408;2024-03-07T13:23:11;12.70;99.90
22139;DHT22;25815;52.582;13.408;2024-03-07T13:25:37;12.70;99.90
22139;DHT22;25815;52.582;13.408;2024-03-07T13:28:09;12.70;99.90
22139;DHT22;25815;52.582;13.408;2024-03-07T13:30:43;12.80;99.90
22139;DHT22;25815;52.582;13.408;2024-03-07T13:33:09;13.00;99.90
22139;DHT22;25815;52.582;13.408;2024-03-07T13:35:39;13.00;99.90
22139;DHT22;25815;52.582;13.408;2024-03-07T13:38:05;13.20;99.90
22139;DHT22;25815;52.582;13.408;2024-03-07T13:40:32;13.30;99.90
22139;DHT22;25815;52.582;13.408;2024-03-07T13:43:00;13.50;99.90
22139;DHT22;25815;52.582;13.408;2024-03-07T13:45:28;13.60;99.90
22139;DHT22;25815;52.582;13.408;2024-03-07T13:47:55;13.90;99.90
22139;DHT22;25815;52.582;13.408;2024-03-07T13:50:23;13.90;99.90
22139;DHT22;25815;52.582;13.408;2024-03-07T13:52:53;13.80;99.90
22139;DHT22;25815;52.582;13.408;2024-03-07T14:02:02;13.70;99.90
22139;DHT22;25815;52.582;13.408;2024-03-07T14:05:07;13.70;99.90
22139;DHT22;25815;52.582;13.408;2024-03-07T14:08:14;13.90;99.90
22139;DHT22;25815;52.582;13.408;2024-03-07T14:27:37;14.50;99.90
22139;DHT22;25815;52.582;13.408;2024-03-07T14:30:18;14.40;97.80
22139;DHT22;25815;52.582;13.408;2024-03-07T14:32:54;13.90;97.10
22139;DHT22;25815;52.582;13.408;2024-03-07T14:35:31;13.60;98.50
22139;DHT22;25815;52.582;13.408;2024-03-07T14:40:40;13.30;99.30
22139;DHT22;25815;52.582;13.408;2024-03-07T14:43:06;13.10;99.70
22139;DHT22;25815;52.582;13.408;2024-03-07T14:45:39;12.90;99.80
22139;DHT22;25815;52.582;13.408;2024-03-07T14:48:06;12.70;99.90
22139;DHT22;25815;52.582;13.408;2024-03-07T14:50:35;12.50;99.90
22139;DHT22;25815;52.582;13.408;2024-03-07T14:53:03;12.40;99.90
22139;DHT22;25815;52.582;13.408;2024-03-07T14:55:30;12.20;99.90
22139;DHT22;25815;52.582;13.408;2024-03-07T14:57:56;12.10;99.90
22139;DHT22;25815;52.582;13.408;2024-03-07T15:00:22;12.00;99.90
22139;DHT22;25815;52.582;13.408;2024-03-07T15:02:54;11.80;99.90
22139;DHT22;25815;52.582;13.408;2024-03-07T15:05:23;11.50;99.90
22139;DHT22;25815;52.582;13.408;2024-03-07T15:07:50;11.40;99.90
22139;DHT22;25815;52.582;13.408;2024-03-07T15:10:33;11.20;99.90
22139;DHT22;25815;52.582;13.408;2024-03-07T15:13:00;10.80;99.90
22139;DHT22;25815;52.582;13.408;2024-03-07T15:15:25;10.80;99.90
22139;DHT22;25815;52.582;13.408;2024-03-07T15:17:53;10.70;99.90
22139;DHT22;25815;52.582;13.408;2024-03-07T15:20:19;10.70;99.90
22139;DHT22;25815;52.582;13.408;2024-03-07T15:22:50;10.70;99.90
22139;DHT22;25815;52.582;13.408;2024-03-07T15:25:16;10.70;99.90
22139;DHT22;25815;52.582;13.408;2024-03-07T15:27:44;10.60;99.90
22139;DHT22;25815;52.582;13.408;2024-03-07T15:30:11;10.50;99.90
22139;DHT22;25815;52.582;13.408;2024-03-07T15:32:42;10.50;99.90
22139;DHT22;25815;52.582;13.408;2024-03-07T15:35:09;10.30;99.90
22139;DHT22;25815;52.582;13.408;2024-03-07T15:37:39;10.30;99.90
22139;DHT22;25815;52.582;13.408;2024-03-07T15:40:09;10.20;99.90
22139;DHT22;25815;52.582;13.408;2024-03-07T15:42:43;10.10;99.90
22139;DHT22;25815;52.582;13.408;2024-03-07T15:45:13;10.00;99.90
22139;DHT22;25815;52.582;13.408;2024-03-07T15:48:00;10.00;99.90
22139;DHT22;25815;52.582;13.408;2024-03-07T15:50:36;9.90;99.90
22139;DHT22;25815;52.582;13.408;2024-03-07T15:53:04;9.90;99.90
22139;DHT22;25815;52.582;13.408;2024-03-07T15:55:32;9.80;99.90
22139;DHT22;25815;52.582;13.408;2024-03-07T15:58:00;9.70;99.90